| time (UTC) | temp F | wind direction | speed knots | gust knots | rain 1hr in | rain 24hr in | rain mn in | humidity % | barometer mb |
| 20260510033746 | 0 | 357 | 0.0 | 0.0 | 0.00 | 0.00 | 0.00 | ||
| 20260510032957 | 0 | 358 | 0.0 | 0.0 | 0.00 | 0.00 | 0.00 | ||
| 20260510032056 | 54 | 356 | 0.0 | 0.0 | 0.00 | 0.00 | 0.00 | 76 | 1006.2 |
| 20260510031418 | 54 | 358 | 0.0 | 5.2 | 0.00 | 0.00 | 0.00 | 76 | 1006.1 |
| 20260510030736 | 0 | 355 | 3.5 | 5.2 | 0.00 | 0.00 | 0.33 | ||
| 20260510025948 | 0 | 357 | 0.0 | 0.0 | 0.00 | 0.00 | 0.33 | ||
| 20260510025155 | 54 | 354 | 0.0 | 0.0 | 0.00 | 0.00 | 0.33 | 76 | 1005.9 |
| 20260510024515 | 53 | 357 | 0.0 | 0.0 | 0.00 | 0.00 | 0.33 | 78 | 1005.6 |
| 20260510023835 | 53 | 357 | 0.0 | 3.5 | 0.00 | 0.00 | 0.33 | 78 | 1005.6 |
| 20260510023155 | 53 | 358 | 0.0 | 4.3 | 0.00 | 0.00 | 0.33 | 78 | 1005.5 |
| 20260510022517 | 0 | 357 | 0.0 | 7.0 | 0.00 | 0.00 | 0.33 | ||
| 20260510021354 | 0 | 355 | 0.9 | 4.3 | 0.00 | 0.00 | 0.33 | ||
| 20260510020236 | 52 | 356 | 0.0 | 6.1 | 0.00 | 0.00 | 0.33 | 81 | 1005.3 |
| 20260510015555 | 52 | 357 | 0.0 | 7.0 | 0.00 | 0.00 | 0.33 | 82 | 1005.5 |
| 20260510014915 | 53 | 357 | 1.7 | 5.2 | 0.00 | 0.00 | 0.33 | 82 | 1005.4 |
| 20260510014236 | 53 | 357 | 0.0 | 4.3 | 0.00 | 0.00 | 0.33 | 81 | 1005.3 |
| 20260510013556 | 0 | 357 | 0.0 | 4.3 | 0.00 | 0.00 | 0.33 | ||
| 20260510012655 | 53 | 356 | 0.0 | 7.0 | 0.00 | 0.00 | 0.33 | 79 | 1005.2 |
| 20260510012015 | 54 | 354 | 5.2 | 7.8 | 0.00 | 0.00 | 0.33 | 79 | 1005.1 |
| 20260510011334 | 54 | 358 | 5.2 | 9.6 | 0.00 | 0.00 | 0.33 | 79 | 1005.1 |
| 20260510010655 | 54 | 356 | 5.2 | 12.2 | 0.00 | 0.00 | 0.33 | 79 | 1005.0 |
| 20260510010015 | 0 | 357 | 6.1 | 7.8 | 0.00 | 0.00 | 0.33 | ||
| 20260510005225 | 54 | 356 | 10.4 | 15.6 | 0.00 | 0.00 | 0.33 | 75 | 1004.9 |
| 20260510004545 | 0 | 358 | 8.7 | 7.8 | 0.00 | 0.00 | 0.33 | ||
| 20260510003754 | 54 | 356 | 8.7 | 19.1 | 0.00 | 0.00 | 0.33 | 80 | 1004.1 |
| 20260510003114 | 53 | 355 | 11.3 | 19.1 | 0.00 | 0.00 | 0.33 | 81 | 1003.9 |
| 20260510002434 | 53 | 356 | 8.7 | 16.5 | 0.00 | 0.00 | 0.33 | 90 | 1003.8 |
| 20260510001755 | 0 | 356 | 8.7 | 5.2 | 0.00 | 0.00 | 0.33 | ||
| 20260510001005 | 53 | 356 | 13.9 | 19.1 | 0.00 | 0.00 | 0.33 | 97 | 1004.3 |
| 20260510000327 | 0 | 356 | 9.6 | 10.4 | 0.00 | 0.00 | 0.33 | ||
| 20260509235426 | 0 | 356 | 8.7 | 7.8 | 0.00 | 0.00 | 0.32 | ||
| 20260509234634 | 0 | 358 | 6.1 | 8.7 | 0.00 | 0.00 | 0.30 | ||
| 20260509233841 | 51 | 359 | 0.9 | 1.7 | 0.00 | 0.00 | 0.27 | 97 | 1005.1 |
| 20260509233051 | 0 | 357 | 7.0 | 7.0 | 0.00 | 0.00 | 0.25 | ||
| 20260509232306 | 0 | 355 | 7.8 | 7.8 | 0.00 | 0.00 | 0.23 | ||
| 20260509231511 | 51 | 355 | 10.4 | 18.2 | 0.00 | 0.00 | 0.21 | 97 | 1005.6 |
| 20260509230831 | 0 | 356 | 14.8 | 14.8 | 0.00 | 0.00 | 0.18 | ||
| 20260509225928 | 51 | 354 | 20.9 | 40.0 | 0.00 | 0.00 | 0.10 | 93 | 1005.0 |
| 20260509225248 | 56 | 355 | 7.0 | 9.6 | 0.00 | 0.00 | 0.00 | 74 | 1004.0 |
| 20260509224608 | 0 | 356 | 0.0 | 0.0 | 0.00 | 0.00 | 0.00 | ||
| 20260509223819 | 56 | 355 | 0.0 | 0.0 | 0.00 | 0.00 | 0.00 | 69 | 1003.0 |
| 20260509223139 | 57 | 360 | 0.0 | 0.0 | 0.00 | 0.00 | 0.00 | 67 | 1002.9 |
| 20260509222459 | 0 | 358 | 0.0 | 0.0 | 0.00 | 0.00 | 0.00 | ||
| 20260509221708 | 58 | 355 | 0.0 | 0.0 | 0.00 | 0.00 | 0.00 | 65 | 1002.5 |
| 20260509221028 | 58 | 356 | 0.0 | 0.0 | 0.00 | 0.00 | 0.00 | 66 | 1002.4 |
| 20260509220350 | 58 | 355 | 0.0 | 0.0 | 0.00 | 0.00 | 0.00 | 63 | 1002.5 |
| 20260509215708 | 58 | 357 | 0.0 | 0.0 | 0.00 | 0.00 | 0.00 | 63 | 1002.6 |
| 20260509215029 | 0 | 356 | 0.0 | 0.0 | 0.00 | 0.00 | 0.00 | ||
| 20260509214132 | 59 | 360 | 0.0 | 0.0 | 0.00 | 0.00 | 0.00 | 62 | 1002.6 |
| 20260509213452 | 59 | 356 | 0.0 | 4.3 | 0.00 | 0.00 | 0.00 | 60 | 1002.6 |
| 20260509212813 | 60 | 354 | 0.9 | 4.3 | 0.00 | 0.00 | 0.00 | 60 | 1002.7 |
| 20260509212131 | 59 | 356 | 0.0 | 5.2 | 0.00 | 0.00 | 0.00 | 64 | 1002.7 |
| 20260509211452 | 57 | 358 | 1.7 | 6.1 | 0.00 | 0.00 | 0.00 | 66 | 1003.1 |
| 20260509210812 | 0 | 355 | 0.0 | 0.0 | 0.00 | 0.00 | 0.00 | ||
| 20260509210022 | 0 | 356 | 0.0 | 0.0 | 0.00 | 0.00 | 0.00 | ||
| 20260509205124 | 59 | 357 | 0.0 | 5.2 | 0.00 | 0.00 | 0.00 | 63 | 1003.2 |
| 20260509204445 | 0 | 353 | 1.7 | 1.7 | 0.00 | 0.00 | 0.00 | ||
| 20260509203658 | 0 | 359 | 0.0 | 0.0 | 0.00 | 0.00 | 0.00 | ||
| 20260509202751 | 57 | 356 | 0.0 | 0.0 | 0.00 | 0.00 | 0.00 | 67 | 1003.0 |
| 20260509202110 | 57 | 356 | 0.0 | 0.0 | 0.00 | 0.00 | 0.00 | 67 | 1003.2 |
| 20260509201431 | 57 | 357 | 0.0 | 0.0 | 0.00 | 0.00 | 0.00 | 67 | 1003.3 |
| 20260509200751 | 59 | 353 | 0.0 | 0.0 | 0.00 | 0.00 | 0.00 | 64 | 1003.4 |
| 20260509200110 | 60 | 357 | 0.0 | 0.0 | 0.00 | 0.00 | 0.00 | 63 | 1003.5 |
| 20260509195430 | 59 | 355 | 0.0 | 0.0 | 0.00 | 0.00 | 0.00 | 65 | 1003.4 |
| 20260509194751 | 60 | 353 | 0.0 | 5.2 | 0.00 | 0.00 | 0.00 | 66 | 1003.4 |
| 20260509194110 | 59 | 355 | 1.7 | 6.1 | 0.00 | 0.00 | 0.00 | 65 | 1003.5 |
| 20260509193431 | 59 | 350 | 2.6 | 6.1 | 0.00 | 0.00 | 0.00 | 67 | 1003.6 |
| 20260509192637 | 59 | 356 | 0.0 | 0.0 | 0.00 | 0.00 | 0.00 | 65 | 1003.8 |
| 20260509191959 | 59 | 356 | 0.0 | 5.2 | 0.00 | 0.00 | 0.00 | 64 | 1003.9 |
| 20260509191318 | 60 | 356 | 2.6 | 7.0 | 0.00 | 0.00 | 0.00 | 63 | 1004.0 |
| 20260509190638 | 58 | 354 | 3.5 | 7.0 | 0.00 | 0.00 | 0.00 | 66 | 1004.1 |
| 20260509185957 | 60 | 356 | 2.6 | 7.8 | 0.00 | 0.00 | 0.00 | 64 | 1004.1 |
| 20260509185318 | 60 | 355 | 5.2 | 7.8 | 0.00 | 0.00 | 0.00 | 64 | 1004.2 |
| 20260509184638 | 0 | 352 | 5.2 | 6.1 | 0.00 | 0.00 | 0.00 | ||
| 20260509183742 | 60 | 357 | 3.5 | 7.0 | 0.00 | 0.00 | 0.00 | 63 | 1004.1 |
| 20260509183102 | 0 | 356 | 3.5 | 5.2 | 0.00 | 0.00 | 0.00 | ||
| 20260509182312 | 0 | 355 | 5.2 | 3.5 | 0.00 | 0.00 | 0.00 | ||
| 20260509181524 | 58 | 356 | 3.5 | 7.0 | 0.00 | 0.00 | 0.00 | 65 | 1004.5 |
| 20260509180843 | 60 | 354 | 0.0 | 0.0 | 0.00 | 0.00 | 0.00 | 63 | 1004.5 |
| 20260509180203 | 59 | 356 | 0.0 | 0.0 | 0.00 | 0.00 | 0.00 | 63 | 1004.6 |
| 20260509175523 | 0 | 356 | 0.0 | 6.1 | 0.00 | 0.00 | 0.00 | ||
| 20260509174622 | 58 | 354 | 3.5 | 6.1 | 0.00 | 0.00 | 0.00 | 66 | 1004.9 |
| 20260509173942 | 60 | 357 | 0.0 | 0.0 | 0.00 | 0.00 | 0.00 | 64 | 1005.2 |
| 20260509173301 | 58 | 355 | 0.0 | 0.0 | 0.00 | 0.00 | 0.00 | 66 | 1005.1 |
| 20260509172621 | 59 | 353 | 0.0 | 6.1 | 0.00 | 0.00 | 0.00 | 65 | 1005.1 |
| 20260509171946 | 60 | 357 | 0.0 | 5.2 | 0.00 | 0.00 | 0.00 | 62 | 1005.1 |
| 20260509171302 | 0 | 0 | 3.5 | 3.5 | 0.00 | 0.00 | 0.00 | ||
| 20260509170501 | 58 | 358 | 4.3 | 8.7 | 0.00 | 0.00 | 0.00 | 65 | 1005.2 |
| 20260509165821 | 60 | 354 | 1.7 | 6.1 | 0.00 | 0.00 | 0.00 | 64 | 1005.2 |
| 20260509165146 | 60 | 359 | 0.9 | 7.0 | 0.00 | 0.00 | 0.00 | 63 | 1005.1 |
| 20260509164502 | 59 | 357 | 2.6 | 7.0 | 0.00 | 0.00 | 0.00 | 65 | 1005.3 |
| 20260509163823 | 0 | 357 | 0.0 | 0.0 | 0.00 | 0.00 | 0.00 | ||
| 20260509163035 | 0 | 354 | 0.0 | 7.0 | 0.00 | 0.00 | 0.00 | ||
| 20260509162135 | 60 | 355 | 4.3 | 7.0 | 0.00 | 0.00 | 0.00 | 61 | 1005.4 |
| 20260509161456 | 60 | 355 | 0.0 | 0.0 | 0.00 | 0.00 | 0.00 | 62 | 1005.4 |
| 20260509160817 | 0 | 354 | 0.0 | 0.0 | 0.00 | 0.00 | 0.00 | ||
| 20260509160026 | 60 | 356 | 0.0 | 0.0 | 0.00 | 0.00 | 0.00 | 62 | 1005.4 |
| 20260509155346 | 59 | 357 | 0.0 | 0.0 | 0.00 | 0.00 | 0.00 | 62 | 1005.5 |
| 20260509154705 | 59 | 357 | 0.0 | 3.5 | 0.00 | 0.00 | 0.00 | 62 | 1005.6 |
| 20260509154026 | 0 | 350 | 0.0 | 5.2 | 0.00 | 0.00 | 0.00 | ||
| 20260509153201 | 59 | 357 | 0.0 | 0.0 | 0.00 | 0.00 | 0.00 | 63 | 1005.7 |
| 20260509152521 | 58 | 356 | 0.0 | 0.0 | 0.00 | 0.00 | 0.00 | 64 | 1005.7 |
| 20260509151841 | 58 | 356 | 0.0 | 0.0 | 0.00 | 0.00 | 0.00 | 63 | 1005.7 |
| 20260509151201 | 58 | 356 | 0.0 | 0.0 | 0.00 | 0.00 | 0.00 | 65 | 1005.7 |
| 20260509150521 | 57 | 356 | 0.0 | 0.0 | 0.00 | 0.00 | 0.00 | 64 | 1005.7 |
| 20260509145841 | 59 | 357 | 0.0 | 0.0 | 0.00 | 0.00 | 0.00 | 62 | 1005.6 |
| 20260509145202 | 57 | 357 | 0.0 | 4.3 | 0.00 | 0.00 | 0.00 | 66 | 1005.7 |
| 20260509144521 | 59 | 357 | 0.0 | 3.5 | 0.00 | 0.00 | 0.00 | 62 | 1005.8 |
| 20260509143841 | 57 | 357 | 0.0 | 5.2 | 0.00 | 0.00 | 0.00 | 65 | 1005.8 |
| 20260509143201 | 0 | 356 | 0.0 | 5.2 | 0.00 | 0.00 | 0.00 | ||
| 20260509142258 | 57 | 352 | 1.7 | 8.7 | 0.00 | 0.00 | 0.00 | 61 | 1005.8 |
| 20260509141618 | 57 | 356 | 4.3 | 8.7 | 0.00 | 0.00 | 0.00 | 62 | 1005.9 |
| 20260509140937 | 57 | 357 | 3.5 | 8.7 | 0.00 | 0.00 | 0.00 | 64 | 1006.0 |
| 20260509140258 | 56 | 356 | 6.1 | 8.7 | 0.00 | 0.00 | 0.00 | 65 | 1006.1 |
| 20260509135618 | 56 | 355 | 3.5 | 8.7 | 0.00 | 0.00 | 0.00 | 65 | 1006.1 |
| 20260509134938 | 56 | 355 | 3.5 | 8.7 | 0.00 | 0.00 | 0.00 | 65 | 1006.0 |
| 20260509134258 | 58 | 357 | 4.3 | 8.7 | 0.00 | 0.00 | 0.00 | 66 | 1006.1 |
| 20260509133619 | 57 | 355 | 4.3 | 8.7 | 0.00 | 0.00 | 0.00 | 67 | 1006.1 |
| 20260509132939 | 0 | 355 | 7.0 | 7.0 | 0.00 | 0.00 | 0.00 | ||
| 20260509132151 | 56 | 356 | 4.3 | 9.6 | 0.00 | 0.00 | 0.00 | 68 | 1006.2 |
| 20260509131510 | 56 | 357 | 2.6 | 5.2 | 0.00 | 0.00 | 0.00 | 68 | 1006.3 |
| 20260509130718 | 0 | 355 | 7.8 | 7.0 | 0.00 | 0.00 | 0.00 | ||
| 20260509125926 | 55 | 357 | 7.0 | 8.7 | 0.00 | 0.00 | 0.00 | 69 | 1006.4 |
| 20260509125248 | 0 | 353 | 5.2 | 7.0 | 0.00 | 0.00 | 0.00 | ||
| 20260509124457 | 55 | 356 | 6.1 | 12.2 | 0.00 | 0.00 | 0.00 | 68 | 1006.4 |
| 20260509123818 | 55 | 356 | 7.0 | 9.6 | 0.00 | 0.00 | 0.00 | 69 | 1006.5 |
| 20260509123138 | 54 | 358 | 7.0 | 9.6 | 0.00 | 0.00 | 0.00 | 70 | 1006.5 |
| 20260509122457 | 54 | 358 | 6.1 | 8.7 | 0.00 | 0.00 | 0.00 | 70 | 1006.5 |
| 20260509121817 | 54 | 355 | 3.5 | 8.7 | 0.00 | 0.00 | 0.00 | 72 | 1006.6 |
| 20260509121137 | 0 | 357 | 6.1 | 1.7 | 0.00 | 0.00 | 0.00 | ||
| 20260509120344 | 54 | 353 | 4.3 | 7.8 | 0.00 | 0.00 | 0.00 | 73 | 1006.7 |
| 20260509115704 | 53 | 357 | 2.6 | 7.0 | 0.00 | 0.00 | 0.00 | 72 | 1006.7 |
| 20260509115024 | 0 | 356 | 3.5 | 3.5 | 0.00 | 0.00 | 0.00 | ||
| 20260509114233 | 0 | 355 | 2.6 | 2.6 | 0.00 | 0.00 | 0.00 | ||
| 20260509113335 | 52 | 355 | 4.3 | 8.7 | 0.00 | 0.00 | 0.00 | 74 | 1006.7 |
| 20260509112653 | 52 | 356 | 2.6 | 7.8 | 0.00 | 0.00 | 0.00 | 74 | 1006.6 |
| 20260509112014 | 51 | 356 | 2.6 | 7.8 | 0.00 | 0.00 | 0.00 | 74 | 1006.7 |
| 20260509111333 | 51 | 356 | 4.3 | 7.0 | 0.00 | 0.00 | 0.00 | 75 | 1006.8 |
| 20260509110656 | 51 | 355 | 3.5 | 7.0 | 0.00 | 0.00 | 0.00 | 75 | 1006.8 |
| 20260509110014 | 0 | 357 | 3.5 | 3.5 | 0.00 | 0.00 | 0.00 | ||
| 20260509105111 | 50 | 357 | 3.5 | 7.8 | 0.00 | 0.00 | 0.00 | 75 | 1006.7 |
| 20260509104431 | 50 | 356 | 4.3 | 7.8 | 0.00 | 0.00 | 0.00 | 75 | 1006.7 |
| 20260509103751 | 0 | 356 | 3.5 | 7.8 | 0.00 | 0.00 | 0.00 | ||
| 20260509103001 | 50 | 357 | 2.6 | 6.1 | 0.00 | 0.00 | 0.00 | 75 | 1006.7 |
| 20260509102320 | 49 | 356 | 1.7 | 6.1 | 0.00 | 0.00 | 0.00 | 76 | 1006.8 |
| 20260509101641 | 49 | 355 | 2.6 | 6.1 | 0.00 | 0.00 | 0.00 | 77 | 1006.7 |
| 20260509101002 | 49 | 355 | 3.5 | 5.2 | 0.00 | 0.00 | 0.00 | 77 | 1006.7 |
| 20260509100321 | 0 | 357 | 0.0 | 4.3 | 0.00 | 0.00 | 0.00 | ||
| 20260509095530 | 48 | 356 | 1.7 | 4.3 | 0.00 | 0.00 | 0.00 | 76 | 1006.7 |
| 20260509094850 | 49 | 358 | 1.7 | 5.2 | 0.00 | 0.00 | 0.00 | 76 | 1006.6 |
| 20260509094210 | 49 | 357 | 1.7 | 1.7 | 0.00 | 0.00 | 0.00 | 76 | 1006.6 |
| 20260509093421 | 49 | 356 | 2.6 | 5.2 | 0.00 | 0.00 | 0.00 | 76 | 1006.6 |
| 20260509092746 | 49 | 357 | 1.7 | 6.1 | 0.00 | 0.00 | 0.00 | 75 | 1006.6 |
| 20260509092100 | 49 | 356 | 1.7 | 6.1 | 0.00 | 0.00 | 0.00 | 75 | 1006.6 |
| 20260509091421 | 49 | 357 | 3.5 | 6.1 | 0.00 | 0.00 | 0.00 | 74 | 1006.7 |
| 20260509090740 | 49 | 356 | 1.7 | 5.2 | 0.00 | 0.00 | 0.00 | 74 | 1006.7 |
| 20260509085158 | 0 | 355 | 3.5 | 6.1 | 0.00 | 0.00 | 0.00 | ||
| 20260509084407 | 0 | 358 | 1.7 | 4.3 | 0.00 | 0.00 | 0.00 | ||
| 20260509083618 | 49 | 357 | 2.6 | 7.0 | 0.00 | 0.00 | 0.00 | 71 | 1006.8 |
| 20260509082938 | 0 | 359 | 2.6 | 5.2 | 0.00 | 0.00 | 0.00 | ||
| 20260509081930 | 0 | 357 | 0.0 | 3.5 | 0.00 | 0.00 | 0.00 | ||
| 20260509081137 | 0 | 356 | 0.0 | 7.0 | 0.00 | 0.00 | 0.00 | ||
| 20260509080347 | 49 | 357 | 3.5 | 7.0 | 0.00 | 0.00 | 0.00 | 70 | 1006.8 |
| 20260509075708 | 49 | 357 | 1.7 | 7.0 | 0.00 | 0.00 | 0.00 | 69 | 1006.9 |
| 20260509075027 | 0 | 357 | 6.1 | 6.1 | 0.00 | 0.00 | 0.00 | ||
| 20260509074237 | 48 | 357 | 2.6 | 5.2 | 0.00 | 0.00 | 0.00 | 67 | 1007.1 |
| 20260509073557 | 47 | 356 | 2.6 | 5.2 | 0.00 | 0.00 | 0.00 | 67 | 1007.2 |
| 20260509072917 | 47 | 357 | 1.7 | 5.2 | 0.00 | 0.00 | 0.00 | 65 | 1007.3 |
| 20260509072236 | 47 | 357 | 0.0 | 0.0 | 0.00 | 0.00 | 0.00 | 64 | 1007.2 |
| 20260509071556 | 47 | 359 | 0.0 | 0.0 | 0.00 | 0.00 | 0.00 | 63 | 1007.4 |
| 20260509070918 | 48 | 359 | 0.0 | 5.2 | 0.00 | 0.00 | 0.00 | 62 | 1007.4 |
| 20260509070236 | 48 | 357 | 3.5 | 6.1 | 0.00 | 0.00 | 0.00 | 64 | 1007.4 |
| 20260509065556 | 48 | 358 | 0.9 | 5.2 | 0.00 | 0.00 | 0.00 | 62 | 1007.4 |
| 20260509064917 | 48 | 357 | 2.6 | 6.1 | 0.00 | 0.00 | 0.00 | 62 | 1007.5 |
| 20260509064236 | 48 | 356 | 3.5 | 7.8 | 0.00 | 0.00 | 0.00 | 61 | 1007.5 |
| 20260509063557 | 0 | 355 | 4.3 | 2.6 | 0.00 | 0.00 | 0.00 | ||
| 20260509062806 | 47 | 358 | 0.0 | 0.0 | 0.00 | 0.00 | 0.00 | 59 | 1007.5 |
| 20260509062126 | 47 | 357 | 0.0 | 0.0 | 0.00 | 0.00 | 0.00 | 59 | 1007.7 |
| 20260509061446 | 47 | 358 | 0.0 | 0.0 | 0.00 | 0.00 | 0.00 | 58 | 1007.8 |
| 20260509060805 | 46 | 357 | 0.0 | 5.2 | 0.00 | 0.00 | 0.00 | 56 | 1007.9 |
| 20260509060127 | 46 | 357 | 0.9 | 5.2 | 0.00 | 0.00 | 0.00 | 55 | 1007.9 |
| 20260509055447 | 46 | 358 | 0.0 | 0.0 | 0.00 | 0.00 | 0.00 | 55 | 1008.1 |
| 20260509054807 | 0 | 357 | 0.0 | 0.0 | 0.00 | 0.00 | 0.00 | ||
| 20260509053906 | 0 | 359 | 0.0 | 0.0 | 0.00 | 0.00 | 0.00 | ||
| 20260509053009 | 45 | 358 | 0.0 | 0.0 | 0.00 | 0.00 | 0.00 | 55 | 1008.4 |
| 20260509052328 | 46 | 357 | 0.0 | 0.0 | 0.00 | 0.00 | 0.00 | 56 | 1008.4 |
| 20260509051648 | 45 | 356 | 0.0 | 0.0 | 0.00 | 0.00 | 0.00 | 54 | 1008.5 |
| 20260509051008 | 45 | 357 | 0.0 | 4.3 | 0.00 | 0.00 | 0.00 | 55 | 1008.5 |
| 20260509050329 | 0 | 357 | 0.0 | 5.2 | 0.00 | 0.00 | 0.00 | ||
| 20260509045542 | 0 | 357 | 0.9 | 7.0 | 0.00 | 0.00 | 0.00 | ||
| 20260509044642 | 46 | 358 | 3.5 | 6.1 | 0.00 | 0.00 | 0.00 | 52 | 1008.7 |
| 20260509044002 | 0 | 357 | 1.7 | 3.5 | 0.00 | 0.00 | 0.00 | ||
| 20260509043211 | 46 | 357 | 4.3 | 7.8 | 0.00 | 0.00 | 0.00 | 52 | 1008.7 |
| 20260509042532 | 0 | 354 | 5.2 | 4.3 | 0.00 | 0.00 | 0.00 | ||
| 20260509041632 | 46 | 358 | 0.9 | 5.2 | 0.00 | 0.00 | 0.00 | 54 | 1008.9 |
| 20260509040952 | 0 | 356 | 0.9 | 4.3 | 0.00 | 0.00 | 0.00 | ||
| 20260509040201 | 45 | 357 | 0.9 | 3.5 | 0.00 | 0.00 | 0.00 | 54 | 1009.1 |
| 20260509035521 | 45 | 358 | 0.0 | 5.2 | 0.00 | 0.00 | 0.00 | 54 | 1009.1 |
| 20260509034841 | 0 | 357 | 1.7 | 6.1 | 0.00 | 0.00 | 0.00 | ||
| 20260509034052 | 46 | 356 | 1.7 | 5.2 | 0.00 | 0.00 | 0.00 | 52 | 1009.3 |